createdAt,value
2019-01-19T15:53:27.817Z,3.76
2019-01-19T15:54:27.828Z,3.75
2019-01-19T15:55:27.758Z,3.75
2019-01-19T15:56:27.746Z,3.83
2019-01-19T15:57:27.747Z,3.75
2019-01-19T15:58:27.727Z,3.80
2019-01-19T15:59:27.722Z,3.72
2019-01-19T16:00:27.766Z,3.69
2019-01-19T16:01:27.695Z,3.75
2019-01-19T16:02:27.683Z,3.70
2019-01-19T16:03:27.746Z,3.78
2019-01-19T16:04:27.661Z,3.70
2019-01-19T16:05:27.701Z,3.69
2019-01-19T16:06:27.635Z,3.75
2019-01-19T16:07:27.626Z,3.66
2019-01-19T16:08:27.616Z,3.68
2019-01-19T16:09:27.610Z,3.69
2019-01-19T16:10:27.593Z,3.62
2019-01-19T16:11:27.619Z,3.72
2019-01-19T16:12:27.572Z,3.62
2019-01-19T16:13:27.555Z,3.65
2019-01-19T16:14:27.546Z,3.55
2019-01-19T16:15:27.539Z,3.62
2019-01-19T16:16:27.552Z,3.52
2019-01-19T16:17:27.550Z,3.51
2019-01-19T16:18:27.514Z,3.58
2019-01-19T16:19:27.502Z,3.61
2019-01-19T16:20:27.481Z,3.52
2019-01-19T16:21:27.493Z,3.58
2019-01-19T16:22:27.472Z,3.51
2019-01-19T16:23:27.445Z,3.55
2019-01-19T16:24:27.435Z,3.51
2019-01-19T16:25:27.427Z,3.48
2019-01-19T16:26:27.533Z,3.48
2019-01-19T16:27:27.434Z,3.50
2019-01-19T16:28:27.391Z,3.31
2019-01-19T16:29:27.380Z,3.40
2019-01-19T16:30:27.370Z,3.47
2019-01-19T16:31:27.760Z,3.45
2019-01-19T16:32:27.389Z,3.33
2019-01-19T16:33:27.339Z,3.39
2019-01-19T16:34:27.345Z,3.33
2019-01-19T16:35:27.318Z,3.33
2019-01-19T16:36:27.326Z,3.26
2019-01-19T16:37:27.367Z,3.36
2019-01-19T16:38:27.317Z,3.31
2019-01-19T16:39:27.274Z,3.36
2019-01-19T16:40:27.261Z,3.32
2019-01-19T16:41:27.263Z,3.33
2019-01-19T16:42:27.293Z,3.32
2019-01-19T16:43:27.257Z,3.39
2019-01-19T16:44:27.231Z,3.28
2019-01-19T16:45:27.207Z,3.23
2019-01-19T16:46:27.194Z,3.31
2019-01-19T16:47:27.186Z,3.28
2019-01-19T16:48:27.229Z,3.23
2019-01-19T16:49:27.159Z,3.14
2019-01-19T16:50:27.153Z,3.17
2019-01-19T16:51:27.995Z,3.17
2019-01-19T16:52:27.130Z,3.13
2019-01-19T16:53:27.121Z,3.11
2019-01-19T16:54:27.168Z,3.08
2019-01-19T16:55:27.116Z,3.14
2019-01-19T16:56:27.085Z,3.06
2019-01-19T16:57:27.084Z,3.13
2019-01-19T16:58:27.064Z,2.96
2019-01-19T16:59:27.096Z,2.96
2019-01-19T17:00:27.085Z,2.92
2019-01-19T17:01:27.042Z,2.87
2019-01-19T17:02:27.020Z,2.87
2019-01-19T17:03:27.020Z,2.87
2019-01-19T17:04:27.082Z,2.96
2019-01-19T17:05:26.979Z,2.93
2019-01-19T17:06:27.011Z,2.87
2019-01-19T17:07:26.974Z,2.84
2019-01-19T17:08:26.953Z,2.84
2019-01-19T17:09:32.960Z,2.87
2019-01-19T17:10:28.448Z,2.79
2019-01-19T17:11:26.918Z,2.95
2019-01-19T17:12:26.921Z,2.85
2019-01-19T17:13:26.900Z,2.82
2019-01-19T17:14:26.895Z,2.81
2019-01-19T17:15:26.901Z,2.79
2019-01-19T17:16:26.870Z,2.81
2019-01-19T17:17:26.852Z,2.93
2019-01-19T17:18:26.848Z,2.81
2019-01-19T17:19:26.824Z,2.79
2019-01-19T17:20:26.892Z,2.78
2019-01-19T17:21:26.813Z,2.78
2019-01-19T17:22:26.816Z,2.81
2019-01-19T17:23:26.796Z,2.71
2019-01-19T17:24:26.769Z,2.77
2019-01-19T17:25:26.761Z,2.84
2019-01-19T17:26:26.783Z,2.78
2019-01-19T17:27:26.738Z,2.78
2019-01-19T17:28:26.741Z,2.87
2019-01-19T17:29:26.727Z,2.78
2019-01-19T17:30:26.746Z,2.79
2019-01-19T17:31:26.822Z,2.79
2019-01-19T17:32:26.730Z,2.82
2019-01-19T17:33:26.677Z,2.81
2019-01-19T17:34:26.714Z,2.74
2019-01-19T17:35:26.652Z,2.71
2019-01-19T17:36:26.661Z,2.74
2019-01-19T17:37:26.732Z,2.79
2019-01-19T17:38:26.615Z,2.78
2019-01-19T17:39:26.615Z,2.75
2019-01-19T17:40:26.632Z,2.74
2019-01-19T17:41:26.583Z,2.74
2019-01-19T17:42:26.639Z,2.77
2019-01-19T17:43:26.569Z,2.72
2019-01-19T17:44:26.559Z,2.64
2019-01-19T17:45:26.578Z,2.77
2019-01-19T17:46:26.536Z,2.74
2019-01-19T17:47:26.980Z,2.66
2019-01-19T17:48:26.545Z,2.67
2019-01-19T17:49:26.557Z,2.57
2019-01-19T17:50:26.566Z,2.69
2019-01-19T17:51:26.514Z,2.56
2019-01-19T17:52:26.511Z,2.45
2019-01-19T17:53:26.483Z,2.57
2019-01-19T17:54:26.442Z,2.46
2019-01-19T17:55:26.433Z,2.48
2019-01-19T17:56:26.445Z,2.49
2019-01-19T17:57:26.407Z,2.52
2019-01-19T17:58:26.436Z,2.53
2019-01-19T17:59:26.382Z,2.48
2019-01-19T18:00:26.393Z,2.54
2019-01-19T18:01:26.469Z,2.48
2019-01-19T18:02:26.353Z,2.54
2019-01-19T18:03:26.433Z,2.52
2019-01-19T18:04:26.352Z,2.45
2019-01-19T18:05:26.320Z,2.54
2019-01-19T18:06:26.311Z,2.56
2019-01-19T18:07:26.318Z,2.54
2019-01-19T18:08:26.315Z,2.52
2019-01-19T18:09:26.307Z,2.43
2019-01-19T18:10:26.266Z,2.45
2019-01-19T18:11:26.263Z,2.39
2019-01-19T18:12:26.243Z,2.39
2019-01-19T18:13:26.243Z,2.39
2019-01-19T18:14:26.356Z,2.48
2019-01-19T18:15:26.217Z,2.39
2019-01-19T18:16:26.238Z,2.43
2019-01-19T18:17:26.189Z,2.30
2019-01-19T18:18:26.173Z,2.38
2019-01-19T18:19:26.183Z,2.38
2019-01-19T18:20:26.213Z,2.31
2019-01-19T18:21:26.148Z,2.36
2019-01-19T18:22:26.137Z,2.28
2019-01-19T18:23:26.133Z,2.35
2019-01-19T18:24:26.251Z,2.35
2019-01-19T18:25:26.112Z,2.27
2019-01-19T18:26:26.118Z,2.34
2019-01-19T18:27:26.082Z,2.21
2019-01-19T18:28:26.077Z,2.17
2019-01-19T18:29:26.070Z,2.14
2019-01-19T18:30:26.079Z,2.23
2019-01-19T18:31:26.049Z,2.18
2019-01-19T18:32:26.025Z,2.16
2019-01-19T18:33:26.040Z,2.09
2019-01-19T18:34:26.017Z,2.14
2019-01-19T18:35:26.143Z,2.14
2019-01-19T18:36:25.988Z,2.16
2019-01-19T18:37:25.973Z,2.18
2019-01-19T18:38:25.970Z,2.20
2019-01-19T18:39:25.945Z,2.09
2019-01-19T18:40:25.940Z,2.18
2019-01-19T18:41:25.962Z,2.12
2019-01-19T18:42:25.920Z,2.16
2019-01-19T18:43:25.916Z,2.16
2019-01-19T18:44:25.976Z,2.12
2019-01-19T18:45:25.892Z,2.03
2019-01-19T18:46:26.036Z,2.02
2019-01-19T18:47:25.892Z,2.03
2019-01-19T18:48:25.882Z,1.98
2019-01-19T18:49:25.908Z,1.99
2019-01-19T18:50:25.897Z,2.03
2019-01-19T18:51:25.854Z,1.87
2019-01-19T18:52:25.830Z,1.86
2019-01-19T18:53:25.812Z,1.90
2019-01-19T18:54:25.793Z,1.84
2019-01-19T18:55:25.785Z,1.84
2019-01-19T18:56:25.766Z,1.77
2019-01-19T18:57:25.778Z,1.72
2019-01-19T18:58:25.798Z,1.69
2019-01-19T18:59:25.733Z,1.76
2019-01-19T19:00:25.737Z,1.76
2019-01-19T19:01:25.769Z,1.73
2019-01-19T19:02:25.698Z,1.84
2019-01-19T19:03:25.736Z,1.84
2019-01-19T19:04:26.367Z,1.81
2019-01-19T19:05:25.665Z,1.77
2019-01-19T19:06:25.729Z,1.69
2019-01-19T19:07:25.646Z,1.90
2019-01-19T19:08:25.669Z,1.69
2019-01-19T19:09:25.617Z,1.84
2019-01-19T19:10:25.617Z,1.76
2019-01-19T19:11:25.601Z,1.73
2019-01-19T19:12:25.590Z,1.73
2019-01-19T19:13:25.718Z,1.79
2019-01-19T19:14:25.567Z,1.80
2019-01-19T19:15:25.555Z,1.72
2019-01-19T19:16:25.552Z,1.69
2019-01-19T19:17:25.538Z,1.80
2019-01-19T19:18:25.544Z,1.77
2019-01-19T19:19:25.542Z,1.73
2019-01-19T19:20:25.559Z,1.76
2019-01-19T19:21:25.509Z,1.72
2019-01-19T19:22:25.477Z,1.76
2019-01-19T19:23:25.475Z,1.77
2019-01-19T19:24:25.474Z,1.81
2019-01-19T19:25:25.505Z,1.79
2019-01-19T19:26:25.465Z,1.69
2019-01-19T19:27:25.424Z,1.83
2019-01-19T19:28:25.415Z,1.70
2019-01-19T19:29:25.406Z,1.72
2019-01-19T19:30:25.428Z,1.66
2019-01-19T19:31:25.407Z,1.79
2019-01-19T19:32:25.373Z,1.77
2019-01-19T19:33:25.355Z,1.77
2019-01-19T19:34:25.345Z,1.65
2019-01-19T19:35:25.370Z,1.68
2019-01-19T19:36:25.326Z,1.63
2019-01-19T19:37:25.315Z,1.58
2019-01-19T19:38:25.300Z,1.69
2019-01-19T19:39:25.301Z,1.63
2019-01-19T19:40:25.312Z,1.65
2019-01-19T19:41:25.269Z,1.69
2019-01-19T19:42:25.284Z,1.58
2019-01-19T19:43:25.248Z,1.58
2019-01-19T19:44:25.236Z,1.58
2019-01-19T19:45:25.231Z,1.60
2019-01-19T19:46:25.262Z,1.45
2019-01-19T19:47:25.201Z,1.62
2019-01-19T19:48:25.197Z,1.65
2019-01-19T19:49:25.189Z,1.63
2019-01-19T19:50:25.180Z,1.62
2019-01-19T19:51:25.164Z,1.63
2019-01-19T19:52:28.003Z,1.60
2019-01-19T19:53:25.183Z,1.60
2019-01-19T19:54:25.137Z,1.58
2019-01-19T19:55:25.120Z,1.54
2019-01-19T19:56:25.119Z,1.52
2019-01-19T19:57:25.122Z,1.58
2019-01-19T19:58:25.082Z,1.58
2019-01-19T19:59:25.114Z,1.55
2019-01-19T20:00:25.066Z,1.42
2019-01-19T20:01:25.058Z,1.52
2019-01-19T20:02:25.061Z,1.50
2019-01-19T20:03:25.208Z,1.52
2019-01-19T20:04:25.024Z,1.47
2019-01-19T20:05:25.012Z,1.40
2019-01-19T20:06:25.064Z,1.42
2019-01-19T20:07:25.000Z,1.40
2019-01-19T20:08:25.035Z,1.45
2019-01-19T20:09:24.962Z,1.44
2019-01-19T20:10:24.968Z,1.48
2019-01-19T20:11:24.965Z,1.42
2019-01-19T20:12:25.906Z,1.36
2019-01-19T20:13:24.950Z,1.40
2019-01-19T20:14:24.913Z,1.34
2019-01-19T20:15:24.929Z,1.41
2019-01-19T20:16:24.889Z,1.34
2019-01-19T20:17:24.883Z,1.36
2019-01-19T20:18:24.887Z,1.18
2019-01-19T20:19:25.833Z,1.30
2019-01-19T20:20:24.845Z,1.26
2019-01-19T20:21:24.850Z,1.36
2019-01-19T20:22:24.819Z,1.36
2019-01-19T20:23:24.819Z,1.30
2019-01-19T20:24:24.851Z,1.27
2019-01-19T20:25:24.793Z,1.33
2019-01-19T20:26:24.779Z,1.32
2019-01-19T20:27:24.771Z,1.30
2019-01-19T20:28:24.760Z,1.23
2019-01-19T20:29:24.746Z,1.18
2019-01-19T20:30:24.764Z,1.16
2019-01-19T20:31:24.729Z,1.20
2019-01-19T20:32:24.717Z,1.20
2019-01-19T20:33:24.715Z,1.26
2019-01-19T20:34:24.706Z,1.16
2019-01-19T20:35:24.738Z,1.15
2019-01-19T20:36:24.672Z,1.11
2019-01-19T20:37:24.661Z,1.14
2019-01-19T20:38:24.655Z,1.09
2019-01-19T20:39:24.641Z,1.08
2019-01-19T20:40:24.806Z,1.02
2019-01-19T20:41:24.643Z,1.08
2019-01-19T20:42:24.614Z,1.00
2019-01-19T20:43:24.599Z,1.11
2019-01-19T20:44:24.604Z,1.09
2019-01-19T20:45:24.570Z,1.06
2019-01-19T20:46:24.578Z,0.98
2019-01-19T20:47:24.546Z,1.06
2019-01-19T20:48:24.543Z,1.08
2019-01-19T20:49:24.532Z,1.08
2019-01-19T20:50:24.508Z,0.98
2019-01-19T20:51:24.523Z,0.97
2019-01-19T20:52:24.488Z,1.02
2019-01-19T20:53:24.482Z,1.02
2019-01-19T20:54:24.475Z,1.00
2019-01-19T20:55:24.469Z,1.12
2019-01-19T20:56:24.493Z,0.98
2019-01-19T20:57:24.489Z,1.05
2019-01-19T20:58:24.476Z,1.02
2019-01-19T20:59:24.420Z,1.08
2019-01-19T21:00:24.462Z,1.06
2019-01-19T21:01:24.426Z,1.00
2019-01-19T21:02:24.401Z,1.04
2019-01-19T21:03:25.364Z,1.05
2019-01-19T21:04:24.360Z,1.02
2019-01-19T21:05:24.368Z,0.97
2019-01-19T21:06:24.349Z,0.98
2019-01-19T21:07:24.332Z,1.02
2019-01-19T21:08:24.315Z,1.00
2019-01-19T21:09:25.279Z,0.98
2019-01-19T21:10:31.431Z,0.91
2019-01-19T21:11:25.294Z,0.90
2019-01-19T21:12:24.323Z,0.98
2019-01-19T21:13:24.315Z,0.87
2019-01-19T21:14:24.264Z,0.83
2019-01-19T21:15:24.261Z,0.93
2019-01-19T21:16:24.229Z,0.90
2019-01-19T21:17:24.211Z,0.96
2019-01-19T21:18:24.201Z,0.98
2019-01-19T21:19:24.282Z,0.96
2019-01-19T21:20:24.203Z,0.94
2019-01-19T21:21:24.174Z,0.97
2019-01-19T21:22:24.178Z,0.93
2019-01-19T21:23:24.144Z,0.96
2019-01-19T21:24:24.314Z,0.88
2019-01-19T21:25:24.143Z,0.96
2019-01-19T21:26:24.157Z,0.90
2019-01-19T21:27:24.861Z,0.80
2019-01-19T21:28:24.187Z,0.88
2019-01-19T21:29:24.083Z,0.90
2019-01-19T21:30:24.108Z,0.88
2019-01-19T21:31:24.070Z,0.83
2019-01-19T21:32:24.047Z,0.87
2019-01-19T21:33:24.059Z,0.94
2019-01-19T21:34:24.032Z,0.79
2019-01-19T21:35:24.014Z,0.86
2019-01-19T21:36:24.046Z,0.79
2019-01-19T21:37:24.046Z,0.75
2019-01-19T21:38:23.979Z,0.76
2019-01-19T21:39:24.003Z,0.78
2019-01-19T21:40:23.970Z,0.80
2019-01-19T21:41:24.012Z,0.84
2019-01-19T21:42:23.957Z,0.80
2019-01-19T21:43:23.924Z,0.84
2019-01-19T21:44:23.927Z,0.80
2019-01-19T21:45:23.915Z,0.83
2019-01-19T21:46:23.935Z,0.90
2019-01-19T21:47:23.902Z,0.80
2019-01-19T21:48:23.907Z,0.73
2019-01-19T21:49:23.867Z,0.84
2019-01-19T21:50:23.885Z,0.90
2019-01-19T21:51:23.890Z,0.91
2019-01-19T21:52:23.838Z,0.76
2019-01-19T21:53:23.815Z,0.73
2019-01-19T21:54:23.819Z,0.76
2019-01-19T21:55:23.830Z,0.88
2019-01-19T21:56:23.840Z,0.78
2019-01-19T21:57:23.774Z,0.73
2019-01-19T21:58:23.768Z,0.78
2019-01-19T21:59:23.762Z,0.76
2019-01-19T22:00:23.739Z,0.80
2019-01-19T22:01:23.722Z,0.69
2019-01-19T22:02:23.786Z,0.75
2019-01-19T22:03:23.699Z,0.78
2019-01-19T22:04:23.695Z,0.70
2019-01-19T22:05:23.686Z,0.66
2019-01-19T22:06:23.710Z,0.73
2019-01-19T22:07:23.654Z,0.62
2019-01-19T22:08:23.679Z,0.60
2019-01-19T22:09:23.638Z,0.66
2019-01-19T22:10:23.646Z,0.75
2019-01-19T22:11:23.612Z,0.69
2019-01-19T22:12:23.605Z,0.69
2019-01-19T22:13:23.611Z,0.70
2019-01-19T22:14:23.582Z,0.62
2019-01-19T22:15:23.586Z,0.66
2019-01-19T22:16:23.559Z,0.62
2019-01-19T22:17:23.549Z,0.62
2019-01-19T22:18:23.567Z,0.61
2019-01-19T22:19:23.529Z,0.60
2019-01-19T22:20:23.517Z,0.62
2019-01-19T22:21:23.499Z,0.58
2019-01-19T22:22:23.494Z,0.66
2019-01-19T22:23:23.508Z,0.65
2019-01-19T22:24:23.523Z,0.53
2019-01-19T22:25:23.459Z,0.47
2019-01-19T22:26:23.447Z,0.49
2019-01-19T22:27:23.469Z,0.49
2019-01-19T22:28:23.476Z,0.53
2019-01-19T22:29:23.439Z,0.47
2019-01-19T22:30:23.424Z,0.47
2019-01-19T22:31:23.404Z,0.42
2019-01-19T22:32:23.378Z,0.50
2019-01-19T22:33:23.374Z,0.46
2019-01-19T22:34:23.386Z,0.47
2019-01-19T22:35:23.380Z,0.55
2019-01-19T22:36:23.345Z,0.47
2019-01-19T22:37:23.323Z,0.44
2019-01-19T22:38:23.317Z,0.53
2019-01-19T22:39:23.346Z,0.58
2019-01-19T22:40:23.311Z,0.49
2019-01-19T22:41:23.349Z,0.47
2019-01-19T22:42:23.286Z,0.55
2019-01-19T22:43:23.269Z,0.55
2019-01-19T22:44:23.255Z,0.49
2019-01-19T22:45:23.245Z,0.47
2019-01-19T22:46:23.228Z,0.42
2019-01-19T22:47:23.245Z,0.49
2019-01-19T22:48:23.216Z,0.41
2019-01-19T22:49:23.217Z,0.39
2019-01-19T22:50:23.201Z,0.51
2019-01-19T22:51:23.203Z,0.53
2019-01-19T22:52:23.165Z,0.47
2019-01-19T22:53:23.197Z,0.47
2019-01-19T22:54:23.147Z,0.53
2019-01-19T22:55:23.180Z,0.47
2019-01-19T22:56:23.133Z,0.47
2019-01-19T22:57:23.122Z,0.50
2019-01-19T22:58:23.132Z,0.42
2019-01-19T22:59:23.136Z,0.46
2019-01-19T23:00:23.094Z,0.47
2019-01-19T23:01:23.101Z,0.51
2019-01-19T23:02:23.062Z,0.41
2019-01-19T23:03:23.070Z,0.49
2019-01-19T23:04:23.073Z,0.47
2019-01-19T23:05:23.040Z,0.41
2019-01-19T23:06:23.337Z,0.46
2019-01-19T23:07:23.018Z,0.41
2019-01-19T23:08:23.064Z,0.51
2019-01-19T23:09:23.002Z,0.53
2019-01-19T23:10:23.049Z,0.50
2019-01-19T23:11:23.030Z,0.50
2019-01-19T23:12:22.965Z,0.47
2019-01-19T23:13:22.960Z,0.41
2019-01-19T23:14:23.084Z,0.49
2019-01-19T23:15:23.004Z,0.46
2019-01-19T23:16:22.923Z,0.47
2019-01-19T23:17:22.976Z,0.44
2019-01-19T23:18:22.892Z,0.42
2019-01-19T23:19:22.888Z,0.38
2019-01-19T23:20:22.877Z,0.36
2019-01-19T23:21:22.936Z,0.36
2019-01-19T23:22:22.852Z,0.38
2019-01-19T23:23:22.886Z,0.38
2019-01-19T23:24:22.928Z,0.46
2019-01-19T23:25:22.914Z,0.42
2019-01-19T23:26:22.815Z,0.33
2019-01-19T23:27:22.912Z,0.39
2019-01-19T23:28:22.806Z,0.33
2019-01-19T23:29:22.832Z,0.42
2019-01-19T23:30:22.786Z,0.35
2019-01-19T23:31:22.812Z,0.36
2019-01-19T23:32:22.755Z,0.36
2019-01-19T23:33:22.779Z,0.39
2019-01-19T23:34:22.719Z,0.35
2019-01-19T23:35:22.742Z,0.44
2019-01-19T23:36:22.818Z,0.38
2019-01-19T23:37:22.809Z,0.28
2019-01-19T23:38:22.884Z,0.38
2019-01-19T23:39:22.852Z,0.36
2019-01-19T23:40:22.897Z,0.24
2019-01-19T23:41:22.678Z,0.33
2019-01-19T23:42:22.640Z,0.24
2019-01-19T23:43:22.629Z,0.23
2019-01-19T23:44:22.630Z,0.31
2019-01-19T23:45:22.814Z,0.28
2019-01-19T23:46:22.634Z,0.26
2019-01-19T23:47:22.587Z,0.20
2019-01-19T23:48:22.576Z,0.28
2019-01-19T23:49:22.699Z,0.26
2019-01-19T23:50:22.561Z,0.21
2019-01-19T23:51:22.891Z,0.24
2019-01-19T23:52:22.537Z,0.28
2019-01-19T23:53:22.617Z,0.14
2019-01-19T23:54:22.561Z,0.14
2019-01-19T23:55:22.508Z,0.13
2019-01-19T23:56:22.566Z,0.07
2019-01-19T23:57:22.543Z,0.20
2019-01-19T23:58:22.469Z,0.20
2019-01-19T23:59:22.480Z,0.26
